Time;durP1;ratioP1;P1;durP2;ratioP2;P2;SDS_P1;SDS_P2;PMS_P1;PMS_P2;Temp;Humidity;BMP_temperature;BMP_pressure;BME280_temperature;BME280_humidity;BME280_pressure;Samples;Min_cycle;Max_cycle;Signal;HPM_P1;HPM_P2
2022/03/26 00:02:14;;;;;;;71.55;39.53;;;6.20;99.90;;;;;;4969143;28;20454;-67
2022/03/26 00:04:41;;;;;;;70.13;39.03;;;6.20;99.90;;;;;;4969514;28;20510;-67
2022/03/26 00:07:08;;;;;;;64.50;38.95;;;6.10;99.90;;;;;;4952899;29;20043;-67
2022/03/26 00:09:35;;;;;;;69.80;39.45;;;6.20;99.90;;;;;;4946308;29;20070;-67
2022/03/26 00:12:02;;;;;;;67.28;39.20;;;6.20;99.90;;;;;;4956852;28;20509;-67
2022/03/26 00:14:29;;;;;;;63.92;38.38;;;6.10;99.90;;;;;;4951898;29;20074;-67
2022/03/26 00:16:56;;;;;;;60.75;36.75;;;6.10;99.90;;;;;;4955162;28;20051;-67
2022/03/26 00:19:23;;;;;;;67.22;39.40;;;6.00;99.90;;;;;;4954624;29;20097;-67
2022/03/26 00:21:50;;;;;;;62.53;38.15;;;6.00;99.90;;;;;;4949158;29;20054;-67
2022/03/26 00:24:17;;;;;;;67.55;38.05;;;5.90;99.90;;;;;;4937219;29;20056;-67
2022/03/26 00:26:44;;;;;;;65.88;38.90;;;5.90;99.90;;;;;;4939069;29;20047;-67
2022/03/26 00:29:10;;;;;;;62.67;37.75;;;5.80;99.90;;;;;;4943459;29;20071;-67
2022/03/26 00:31:38;;;;;;;62.95;35.50;;;5.80;99.90;;;;;;4946676;29;20055;-67
2022/03/26 00:34:06;;;;;;;62.97;36.85;;;5.70;99.90;;;;;;4950401;29;20055;-67
2022/03/26 00:36:33;;;;;;;65.82;37.55;;;5.70;99.90;;;;;;4940479;29;20051;-67
2022/03/26 00:39:00;;;;;;;68.50;39.53;;;5.70;99.90;;;;;;4959709;28;20047;-67
2022/03/26 00:41:28;;;;;;;62.20;38.22;;;5.70;99.90;;;;;;4931063;28;20119;-67
2022/03/26 00:43:56;;;;;;;63.92;36.92;;;5.60;99.90;;;;;;4952793;29;20047;-68
2022/03/26 00:46:23;;;;;;;65.50;38.88;;;5.60;99.90;;;;;;4936693;29;20055;-67
2022/03/26 00:48:50;;;;;;;72.32;39.53;;;5.60;99.90;;;;;;4950552;29;20134;-67
2022/03/26 00:51:17;;;;;;;65.50;38.15;;;5.50;99.90;;;;;;4950744;29;20051;-67
2022/03/26 00:53:44;;;;;;;56.47;35.08;;;5.50;99.90;;;;;;4938337;29;20467;-67
2022/03/26 00:56:12;;;;;;;62.65;36.40;;;5.40;99.90;;;;;;4948289;29;20055;-67
2022/03/26 00:58:39;;;;;;;70.28;39.90;;;5.40;99.90;;;;;;4926042;29;20059;-67
2022/03/26 01:01:07;;;;;;;64.72;37.13;;;5.40;99.90;;;;;;4960687;28;20055;-67
2022/03/26 01:03:34;;;;;;;66.07;38.05;;;5.40;99.90;;;;;;4952180;28;20454;-67
2022/03/26 01:06:02;;;;;;;65.47;36.88;;;5.40;99.90;;;;;;4968370;28;20138;-67
2022/03/26 01:08:29;;;;;;;63.90;39.13;;;5.30;99.90;;;;;;4937390;29;20055;-67
2022/03/26 01:10:57;;;;;;;63.65;34.58;;;5.30;99.90;;;;;;4966365;28;20063;-63
2022/03/26 01:13:25;;;;;;;475.50;323.88;;;5.30;99.90;;;;;;4950938;28;20054;-68
2022/03/26 01:15:52;;;;;;;140.77;87.88;;;5.30;99.90;;;;;;4948696;29;20412;-68
2022/03/26 01:18:19;;;;;;;152.52;88.78;;;5.30;99.90;;;;;;4952474;29;20062;-68
2022/03/26 01:20:46;;;;;;;112.78;67.30;;;5.30;99.90;;;;;;4946412;28;20130;-68
2022/03/26 01:23:13;;;;;;;98.00;55.80;;;5.20;99.90;;;;;;4957648;28;20058;-68
2022/03/26 01:25:40;;;;;;;77.20;47.00;;;5.20;99.90;;;;;;4964582;28;20047;-69
2022/03/26 01:28:07;;;;;;;68.10;41.35;;;5.10;99.90;;;;;;4927409;29;20057;-69
2022/03/26 01:30:34;;;;;;;68.18;38.63;;;5.00;99.90;;;;;;4969949;28;20051;-68
2022/03/26 01:33:03;;;;;;;69.55;37.45;;;4.90;99.90;;;;;;4941671;29;20043;-69
2022/03/26 01:35:30;;;;;;;63.50;35.60;;;4.90;99.90;;;;;;4945761;29;20578;-68
2022/03/26 01:38:01;;;;;;;62.70;35.65;;;4.90;99.90;;;;;;4931798;29;20507;-69
2022/03/26 01:40:28;;;;;;;61.65;32.92;;;4.80;99.90;;;;;;4954927;28;20126;-68
2022/03/26 01:42:55;;;;;;;67.20;37.20;;;4.90;99.90;;;;;;4953309;28;20058;-68
2022/03/26 01:45:22;;;;;;;67.10;37.42;;;4.80;99.90;;;;;;4945874;29;20048;-68
2022/03/26 01:47:49;;;;;;;57.92;35.85;;;4.80;99.90;;;;;;4968614;28;20529;-68
2022/03/26 01:50:16;;;;;;;61.03;34.85;;;4.80;99.90;;;;;;4949866;28;20059;-67
2022/03/26 01:52:42;;;;;;;69.20;36.88;;;4.80;99.90;;;;;;4956503;28;20070;-68
2022/03/26 01:55:11;;;;;;;62.40;34.40;;;4.70;99.90;;;;;;4945310;29;20062;-68
2022/03/26 01:57:38;;;;;;;62.53;35.60;;;4.70;99.90;;;;;;4940011;29;20063;-68
2022/03/26 02:00:08;;;;;;;59.42;34.03;;;4.70;99.90;;;;;;4948163;28;20106;-67
2022/03/26 02:02:35;;;;;;;66.50;34.17;;;4.70;99.90;;;;;;4935760;29;20815;-67
2022/03/26 02:05:02;;;;;;;61.08;34.63;;;4.70;99.90;;;;;;4951145;29;20531;-69
2022/03/26 02:07:29;;;;;;;56.08;33.63;;;4.60;99.90;;;;;;4968968;28;20040;-69
2022/03/26 02:09:56;;;;;;;61.10;35.15;;;4.60;99.90;;;;;;4959700;28;21554;-69
2022/03/26 02:12:24;;;;;;;63.92;33.50;;;4.60;99.90;;;;;;4941072;29;20054;-69
2022/03/26 02:14:51;;;;;;;61.33;35.38;;;4.50;99.90;;;;;;4930015;29;20055;-70
2022/03/26 02:17:18;;;;;;;61.03;34.63;;;4.50;99.90;;;;;;4950587;29;20050;-69
2022/03/26 02:19:58;;;;;;;55.80;32.67;;;4.50;99.90;;;;;;4948424;28;20495;-69
2022/03/26 02:22:26;;;;;;;61.55;34.20;;;4.40;99.90;;;;;;4946128;29;20051;-69
2022/03/26 02:24:53;;;;;;;58.80;34.25;;;4.40;99.90;;;;;;4933662;29;20445;-69
2022/03/26 02:27:21;;;;;;;56.85;32.85;;;4.40;99.90;;;;;;4933087;29;20047;-69
2022/03/26 02:29:50;;;;;;;60.75;34.90;;;4.40;99.90;;;;;;4952386;29;20146;-69
2022/03/26 02:32:25;;;;;;;58.90;33.53;;;4.30;99.90;;;;;;4949579;29;20043;-69
2022/03/26 02:34:52;;;;;;;57.08;31.65;;;4.30;99.90;;;;;;4934127;29;20048;-69
2022/03/26 02:37:29;;;;;;;58.65;31.67;;;4.30;99.90;;;;;;4922901;29;20138;-69
2022/03/26 02:39:56;;;;;;;58.97;31.27;;;4.20;99.90;;;;;;4961253;28;20044;-67
2022/03/26 02:42:23;;;;;;;61.78;33.38;;;4.20;99.90;;;;;;4946483;28;20054;-69
2022/03/26 02:44:51;;;;;;;60.72;33.58;;;4.20;99.90;;;;;;4937659;29;20055;-69
2022/03/26 02:47:18;;;;;;;60.60;32.88;;;4.20;99.90;;;;;;4948410;29;20051;-69
2022/03/26 02:49:45;;;;;;;56.80;31.05;;;4.10;99.90;;;;;;4964444;28;20048;-69
2022/03/26 02:52:12;;;;;;;57.05;31.52;;;4.10;99.90;;;;;;4934881;29;20557;-69
2022/03/26 02:54:39;;;;;;;54.97;30.60;;;4.10;99.90;;;;;;4928118;29;20059;-69
2022/03/26 02:57:06;;;;;;;55.63;30.45;;;4.00;99.90;;;;;;4955288;28;20055;-69
2022/03/26 02:59:33;;;;;;;56.45;31.05;;;4.00;99.90;;;;;;4923134;29;20134;-69
2022/03/26 03:02:00;;;;;;;57.60;30.20;;;4.00;99.90;;;;;;4945567;29;20047;-69
2022/03/26 03:04:27;;;;;;;56.53;30.50;;;4.00;99.90;;;;;;4920521;29;20055;-69
2022/03/26 03:06:54;;;;;;;63.47;32.50;;;3.90;99.90;;;;;;4935658;29;20047;-69
2022/03/26 03:09:21;;;;;;;60.30;29.60;;;3.90;99.90;;;;;;4932867;29;20052;-69
2022/03/26 03:11:48;;;;;;;56.92;32.47;;;3.90;99.90;;;;;;4951796;28;20054;-69
2022/03/26 03:14:16;;;;;;;62.88;31.65;;;3.90;99.90;;;;;;4953542;28;20126;-67
2022/03/26 03:16:43;;;;;;;62.28;32.88;;;3.80;99.90;;;;;;4938040;29;20459;-69
2022/03/26 03:19:10;;;;;;;58.50;33.83;;;3.80;99.90;;;;;;4930642;29;20098;-69
2022/03/26 03:21:37;;;;;;;52.70;31.65;;;3.80;99.90;;;;;;4936219;29;20114;-69
2022/03/26 03:24:04;;;;;;;55.17;31.60;;;3.80;99.90;;;;;;4946557;29;20066;-69
2022/03/26 03:26:31;;;;;;;57.50;32.10;;;3.70;99.90;;;;;;4951840;28;20474;-70
2022/03/26 03:28:59;;;;;;;56.50;32.17;;;3.70;99.90;;;;;;4950930;29;20507;-69
2022/03/26 03:31:28;;;;;;;56.03;32.08;;;3.70;99.90;;;;;;4962862;28;20371;-69
2022/03/26 03:33:55;;;;;;;56.50;31.83;;;3.70;99.90;;;;;;4946790;29;20050;-69
2022/03/26 03:36:22;;;;;;;55.40;31.65;;;3.60;99.90;;;;;;4950873;29;20450;-66
2022/03/26 03:38:49;;;;;;;52.35;28.73;;;3.60;99.90;;;;;;4943377;28;20056;-69
2022/03/26 03:41:17;;;;;;;57.35;30.35;;;3.60;99.90;;;;;;4954231;28;20048;-70
2022/03/26 03:43:44;;;;;;;54.63;30.77;;;3.60;99.90;;;;;;4955224;29;20491;-69
2022/03/26 03:46:11;;;;;;;57.22;33.08;;;3.50;99.90;;;;;;4926242;29;20058;-69
2022/03/26 03:48:38;;;;;;;56.55;34.67;;;3.50;99.90;;;;;;4953168;29;20055;-69
2022/03/26 03:51:05;;;;;;;57.40;33.00;;;3.50;99.90;;;;;;4955323;29;20093;-69
2022/03/26 03:53:32;;;;;;;53.33;29.50;;;3.60;99.90;;;;;;4955386;28;20044;-69
2022/03/26 03:55:59;;;;;;;58.05;33.30;;;3.50;99.90;;;;;;4935909;29;20059;-69
2022/03/26 03:58:26;;;;;;;62.47;34.38;;;3.50;99.90;;;;;;4952689;29;20159;-69
2022/03/26 04:00:55;;;;;;;62.70;33.33;;;3.40;99.90;;;;;;4963647;28;20517;-69
2022/03/26 04:03:23;;;;;;;56.72;31.02;;;3.40;99.90;;;;;;4955496;28;20055;-69
2022/03/26 04:05:50;;;;;;;60.80;32.05;;;3.40;99.90;;;;;;4956223;29;20055;-69
2022/03/26 04:08:17;;;;;;;58.47;32.78;;;3.40;99.90;;;;;;4970412;28;20047;-69
2022/03/26 04:10:44;;;;;;;57.45;30.33;;;3.40;99.90;;;;;;4953850;28;20054;-70
2022/03/26 04:13:11;;;;;;;56.88;33.10;;;3.40;99.90;;;;;;4955791;28;20059;-69
2022/03/26 04:15:38;;;;;;;56.67;31.70;;;3.30;99.90;;;;;;4953907;29;20051;-69
2022/03/26 04:18:06;;;;;;;60.03;33.85;;;3.30;99.90;;;;;;4947730;28;20064;-69
2022/03/26 04:20:35;;;;;;;57.75;30.83;;;3.30;99.90;;;;;;4946495;29;20052;-69
2022/03/26 04:23:02;;;;;;;66.93;36.15;;;3.30;99.90;;;;;;4936791;29;20059;-69
2022/03/26 04:25:31;;;;;;;59.63;35.03;;;3.30;99.90;;;;;;4937829;29;20110;-69
2022/03/26 04:27:58;;;;;;;62.10;33.35;;;3.30;99.90;;;;;;4948098;29;20124;-69
2022/03/26 04:30:25;;;;;;;68.10;36.50;;;3.30;99.90;;;;;;4933626;29;20054;-69
2022/03/26 04:32:52;;;;;;;54.17;30.90;;;3.30;99.90;;;;;;4954758;28;20047;-69
2022/03/26 04:35:19;;;;;;;63.25;33.75;;;3.20;99.90;;;;;;4949531;28;20157;-69
2022/03/26 04:37:46;;;;;;;59.72;32.25;;;3.20;99.90;;;;;;4946334;28;20071;-71
2022/03/26 04:40:14;;;;;;;60.90;32.65;;;3.20;99.90;;;;;;4961625;28;20058;-69
2022/03/26 04:42:41;;;;;;;54.92;31.50;;;3.20;99.90;;;;;;4947943;28;20055;-69
2022/03/26 04:45:09;;;;;;;62.42;32.78;;;3.10;99.90;;;;;;4950513;29;20055;-69
2022/03/26 04:47:36;;;;;;;57.63;31.30;;;3.10;99.90;;;;;;4930149;29;20138;-69
2022/03/26 04:50:05;;;;;;;56.35;31.92;;;3.10;99.90;;;;;;4948573;29;20052;-69
2022/03/26 04:52:32;;;;;;;63.40;32.03;;;3.10;99.90;;;;;;4967108;28;20074;-69
2022/03/26 04:54:59;;;;;;;59.65;31.80;;;3.10;99.90;;;;;;4939508;29;20082;-69
2022/03/26 04:57:26;;;;;;;62.50;32.55;;;3.00;99.90;;;;;;4953043;29;20415;-69
2022/03/26 04:59:53;;;;;;;52.47;30.35;;;3.00;99.90;;;;;;4938847;29;20047;-69
2022/03/26 05:02:20;;;;;;;54.42;31.85;;;3.00;99.90;;;;;;4941306;29;20056;-69
2022/03/26 05:04:47;;;;;;;62.15;33.45;;;3.00;99.90;;;;;;4944375;29;20048;-69
2022/03/26 05:10:10;;;;;;;60.70;33.42;;;3.00;99.90;;;;;;4946691;28;20055;-69
2022/03/26 05:12:37;;;;;;;55.67;32.38;;;2.90;99.90;;;;;;4953558;28;20051;-69
2022/03/26 05:15:04;;;;;;;62.78;34.80;;;2.90;99.90;;;;;;4962555;28;20051;-69
2022/03/26 05:17:31;;;;;;;53.55;30.33;;;2.90;99.90;;;;;;4933959;29;20051;-67
2022/03/26 05:19:58;;;;;;;63.13;33.22;;;2.90;99.90;;;;;;4946127;28;20047;-69
2022/03/26 05:22:25;;;;;;;58.45;30.77;;;2.90;99.90;;;;;;4973261;28;20059;-69
2022/03/26 05:24:53;;;;;;;61.30;33.22;;;2.80;99.90;;;;;;4950984;29;20070;-69
2022/03/26 05:27:20;;;;;;;53.45;31.02;;;2.80;99.90;;;;;;4961486;28;20054;-69
2022/03/26 05:29:49;;;;;;;63.72;34.90;;;2.80;99.90;;;;;;4943263;29;20051;-69
2022/03/26 05:32:16;;;;;;;60.22;34.08;;;2.80;99.90;;;;;;4952317;29;20047;-69
2022/03/26 05:34:44;;;;;;;62.13;33.45;;;2.80;99.90;;;;;;4911590;29;20066;-69
2022/03/26 05:37:11;;;;;;;52.63;30.67;;;2.70;99.90;;;;;;4952749;29;20054;-69
2022/03/26 05:39:38;;;;;;;63.42;33.72;;;2.70;99.90;;;;;;4944185;29;20059;-69
2022/03/26 05:42:06;;;;;;;59.28;34.58;;;2.70;99.90;;;;;;4935173;29;20055;-70
2022/03/26 05:44:33;;;;;;;62.47;32.78;;;2.70;99.90;;;;;;4949939;29;20083;-69
2022/03/26 05:47:00;;;;;;;60.83;32.95;;;2.70;99.90;;;;;;4940010;29;20051;-70
2022/03/26 05:49:27;;;;;;;62.95;34.22;;;2.70;99.90;;;;;;4964932;28;20503;-69
2022/03/26 05:51:54;;;;;;;63.17;34.28;;;2.70;99.90;;;;;;4940487;29;20407;-69
2022/03/26 05:54:21;;;;;;;60.95;32.88;;;2.70;99.90;;;;;;4947205;29;20058;-69
2022/03/26 05:56:53;;;;;;;63.53;32.72;;;2.70;99.90;;;;;;4953626;28;20060;-69
2022/03/26 05:59:23;;;;;;;64.95;31.50;;;2.70;99.90;;;;;;4913832;29;20052;-70
2022/03/26 06:01:50;;;;;;;62.90;33.65;;;2.70;99.90;;;;;;4952586;29;20503;-69
2022/03/26 06:04:17;;;;;;;67.18;36.22;;;2.80;99.90;;;;;;4950711;29;20073;-70
2022/03/26 06:06:44;;;;;;;55.63;29.92;;;2.80;99.90;;;;;;4969555;28;20055;-69
2022/03/26 06:09:11;;;;;;;63.17;32.67;;;2.80;99.90;;;;;;4953146;28;20051;-69
2022/03/26 06:11:38;;;;;;;63.83;31.20;;;2.80;99.90;;;;;;4948910;28;20490;-69
2022/03/26 06:14:06;;;;;;;64.25;33.38;;;2.80;99.90;;;;;;4933102;29;20070;-69
2022/03/26 06:16:34;;;;;;;63.03;32.63;;;2.80;99.90;;;;;;4943550;29;20055;-69
2022/03/26 06:19:02;;;;;;;71.25;35.47;;;2.90;99.90;;;;;;4965307;28;20106;-69
2022/03/26 06:21:29;;;;;;;63.15;36.33;;;2.90;99.90;;;;;;4952903;29;20058;-69
2022/03/26 06:23:59;;;;;;;64.72;34.67;;;2.90;99.90;;;;;;4938852;29;20059;-69
2022/03/26 06:26:26;;;;;;;67.10;35.90;;;2.90;99.90;;;;;;4951177;29;20074;-69
2022/03/26 06:28:53;;;;;;;71.93;36.50;;;3.00;99.90;;;;;;4968439;28;20058;-69
2022/03/26 06:31:20;;;;;;;69.38;39.30;;;3.00;99.90;;;;;;4937503;29;20852;-69
2022/03/26 06:33:47;;;;;;;76.28;40.95;;;3.10;99.90;;;;;;4917407;29;20050;-69
2022/03/26 06:36:14;;;;;;;78.18;36.22;;;3.10;99.90;;;;;;4952139;28;20055;-69
2022/03/26 06:38:41;;;;;;;70.75;39.70;;;3.20;99.90;;;;;;4943485;29;20051;-69
2022/03/26 06:41:09;;;;;;;75.65;40.67;;;3.20;99.90;;;;;;4929965;29;20352;-69
2022/03/26 06:43:37;;;;;;;75.07;38.97;;;3.30;99.90;;;;;;4936294;29;20054;-69
2022/03/26 06:46:04;;;;;;;73.03;36.65;;;3.30;99.90;;;;;;4937722;29;20051;-69
2022/03/26 06:48:32;;;;;;;78.75;40.83;;;3.40;99.90;;;;;;4941787;29;20051;-69
2022/03/26 06:51:00;;;;;;;73.10;39.83;;;3.40;99.90;;;;;;4924184;29;20054;-69
2022/03/26 06:53:30;;;;;;;71.82;39.30;;;3.50;99.90;;;;;;4949234;29;20058;-69
2022/03/26 06:55:57;;;;;;;74.32;41.83;;;3.50;99.90;;;;;;4967173;28;20051;-69
2022/03/26 06:58:25;;;;;;;76.65;40.90;;;3.60;99.90;;;;;;4956603;28;20051;-69
2022/03/26 07:00:52;;;;;;;75.40;39.95;;;3.60;99.90;;;;;;4933085;29;20052;-69
2022/03/26 07:03:19;;;;;;;82.28;43.38;;;3.70;99.90;;;;;;4929420;29;20059;-69
2022/03/26 07:05:46;;;;;;;76.53;39.60;;;3.70;99.90;;;;;;4934248;29;20047;-69
2022/03/26 07:08:13;;;;;;;77.18;42.55;;;3.80;99.90;;;;;;4933966;29;20055;-69
2022/03/26 07:10:44;;;;;;;91.55;43.63;;;3.90;99.90;;;;;;4950650;29;20059;-69
2022/03/26 07:13:12;;;;;;;83.38;42.00;;;3.90;99.90;;;;;;4943910;29;20058;-69
2022/03/26 07:15:39;;;;;;;86.35;44.63;;;4.10;99.90;;;;;;4950632;28;20127;-69
2022/03/26 07:18:06;;;;;;;84.07;46.38;;;4.10;99.90;;;;;;4940649;29;20059;-69
2022/03/26 07:20:33;;;;;;;87.45;43.63;;;4.20;99.90;;;;;;4934718;29;20510;-69
2022/03/26 07:23:00;;;;;;;81.03;44.30;;;4.30;99.90;;;;;;4941746;29;20070;-69
2022/03/26 07:25:29;;;;;;;83.10;44.30;;;4.40;99.90;;;;;;4934755;29;20055;-68
2022/03/26 07:27:56;;;;;;;90.05;47.30;;;4.50;99.90;;;;;;4947555;29;20055;-69
2022/03/26 07:30:23;;;;;;;84.03;44.33;;;4.60;99.90;;;;;;4948082;29;20047;-69
2022/03/26 07:32:50;;;;;;;81.53;44.65;;;4.70;99.90;;;;;;4937926;29;20258;-69
2022/03/26 07:35:17;;;;;;;87.53;46.80;;;4.80;99.90;;;;;;4948358;29;20051;-69
2022/03/26 07:37:43;;;;;;;88.30;45.97;;;4.80;99.90;;;;;;4944404;29;20047;-69
2022/03/26 07:40:13;;;;;;;;;;;4.90;99.90;;;;;;4930390;28;20055;-69
2022/03/26 07:42:40;;;;;;;82.35;44.08;;;5.00;99.90;;;;;;4940039;29;21840;-69
2022/03/26 07:45:07;;;;;;;89.57;47.20;;;5.10;99.90;;;;;;4936810;29;20055;-69
2022/03/26 07:47:37;;;;;;;80.68;44.95;;;5.10;99.90;;;;;;4946138;29;20103;-69
2022/03/26 07:50:05;;;;;;;;;;;5.20;99.90;;;;;;4949733;29;20134;-69
2022/03/26 07:52:32;;;;;;;83.25;44.53;;;5.30;99.90;;;;;;4948873;28;20374;-69
2022/03/26 07:54:59;;;;;;;80.43;45.38;;;5.40;99.90;;;;;;4951659;29;20069;-69
2022/03/26 07:57:27;;;;;;;88.35;48.13;;;5.60;99.90;;;;;;4949269;29;20047;-69
2022/03/26 07:59:54;;;;;;;92.38;46.70;;;5.70;99.90;;;;;;4967306;28;20501;-69
2022/03/26 08:02:21;;;;;;;89.93;46.80;;;5.80;99.90;;;;;;4963133;28;20051;-69
2022/03/26 08:04:48;;;;;;;87.88;49.38;;;5.90;99.90;;;;;;4965549;28;20195;-69
2022/03/26 08:07:15;;;;;;;86.05;44.08;;;6.00;99.90;;;;;;4954117;28;20120;-69
2022/03/26 08:09:42;;;;;;;85.60;47.30;;;6.20;99.90;;;;;;4969271;28;20487;-66
2022/03/26 08:12:10;;;;;;;80.05;49.90;;;6.50;99.90;;;;;;4951696;28;20491;-69
2022/03/26 08:14:36;;;;;;;86.30;45.42;;;6.70;99.90;;;;;;4954341;28;20051;-69
2022/03/26 08:17:03;;;;;;;79.97;44.40;;;7.00;99.90;;;;;;4949985;29;20126;-70
2022/03/26 08:19:34;;;;;;;84.35;46.60;;;7.20;99.90;;;;;;4945658;28;20389;-68
2022/03/26 08:22:04;;;;;;;314.38;202.40;;;7.40;99.90;;;;;;4952091;29;20915;-68
2022/03/26 08:24:32;;;;;;;180.35;128.52;;;7.60;99.90;;;;;;4955523;29;20051;-68
2022/03/26 08:26:58;;;;;;;99.20;62.08;;;7.70;99.90;;;;;;4953579;29;20044;-63
2022/03/26 08:29:25;;;;;;;97.50;56.75;;;7.90;99.90;;;;;;4968965;28;20047;-62
2022/03/26 08:31:52;;;;;;;84.80;48.67;;;8.10;99.90;;;;;;4968540;28;20439;-57
2022/03/26 08:34:20;;;;;;;76.82;46.65;;;8.20;99.90;;;;;;4943147;28;20126;-69
2022/03/26 08:36:47;;;;;;;83.57;45.75;;;8.30;99.90;;;;;;4924927;29;20511;-69
2022/03/26 08:39:14;;;;;;;73.20;42.80;;;8.40;99.90;;;;;;4941350;29;20056;-69
2022/03/26 08:41:41;;;;;;;77.40;46.28;;;8.60;99.90;;;;;;4970359;28;20051;-69
2022/03/26 08:44:08;;;;;;;79.35;44.85;;;8.60;99.90;;;;;;4953533;29;20051;-69
2022/03/26 08:46:35;;;;;;;79.45;47.08;;;8.70;99.90;;;;;;4969800;28;20123;-69
2022/03/26 08:49:02;;;;;;;77.85;46.78;;;8.90;99.90;;;;;;4968731;28;20051;-69
2022/03/26 08:51:29;;;;;;;74.32;43.53;;;9.00;99.90;;;;;;4945471;29;20047;-69
2022/03/26 08:53:56;;;;;;;69.53;42.33;;;9.10;99.90;;;;;;4967076;28;20058;-69
2022/03/26 08:56:23;;;;;;;75.22;44.42;;;9.20;99.90;;;;;;4966688;28;20051;-66
2022/03/26 08:58:51;;;;;;;72.15;42.30;;;9.30;99.90;;;;;;4953195;29;20094;-68
2022/03/26 09:01:18;;;;;;;85.15;55.25;;;9.40;99.90;;;;;;4962856;28;20056;-53
2022/03/26 09:03:46;;;;;;;84.22;50.10;;;9.50;99.90;;;;;;4953001;29;20051;-70
2022/03/26 09:06:14;;;;;;;75.55;48.53;;;9.60;99.90;;;;;;4936459;29;20126;-69
2022/03/26 09:08:41;;;;;;;76.50;46.50;;;9.70;99.90;;;;;;4950193;29;20063;-68
2022/03/26 09:11:07;;;;;;;75.43;43.58;;;9.60;99.90;;;;;;4945566;28;20046;-69
2022/03/26 09:13:34;;;;;;;75.32;42.35;;;9.70;99.90;;;;;;4969018;28;20043;-72
2022/03/26 09:16:01;;;;;;;74.13;43.80;;;9.80;99.90;;;;;;4954573;28;20055;-69
2022/03/26 09:18:29;;;;;;;76.97;45.67;;;9.90;99.10;;;;;;4953426;29;20043;-72
2022/03/26 09:20:56;;;;;;;76.00;42.97;;;10.00;99.40;;;;;;4944821;29;20057;-68
2022/03/26 09:23:23;;;;;;;70.70;43.72;;;10.10;98.10;;;;;;4957251;28;20059;-68
2022/03/26 09:25:52;;;;;;;97.97;47.00;;;10.10;97.80;;;;;;4940029;28;20530;-69
2022/03/26 09:28:19;;;;;;;72.00;43.53;;;10.20;98.80;;;;;;4968986;28;20065;-67
2022/03/26 09:30:46;;;;;;;68.93;40.75;;;10.30;97.40;;;;;;4952131;29;20047;-65
2022/03/26 09:33:13;;;;;;;69.78;43.45;;;10.50;98.30;;;;;;4945490;29;20428;-69
2022/03/26 09:35:40;;;;;;;67.72;39.75;;;10.60;96.50;;;;;;4936666;29;20051;-67
2022/03/26 09:38:07;;;;;;;64.05;37.42;;;10.70;94.80;;;;;;4962248;28;20055;-63
2022/03/26 09:40:33;;;;;;;68.60;41.17;;;10.80;94.60;;;;;;4968661;28;20505;-52
2022/03/26 09:43:01;;;;;;;79.75;45.00;;;11.00;93.90;;;;;;4949898;29;20408;-68
2022/03/26 09:45:28;;;;;;;64.93;39.58;;;11.00;92.70;;;;;;4936777;29;20048;-72
2022/03/26 09:47:55;;;;;;;69.63;41.55;;;11.10;91.90;;;;;;4950127;28;20047;-52
2022/03/26 09:50:22;;;;;;;72.60;43.50;;;11.10;92.40;;;;;;4942716;29;20490;-63
2022/03/26 09:52:50;;;;;;;69.70;43.95;;;11.20;92.80;;;;;;4954032;29;20148;-69
2022/03/26 09:55:19;;;;;;;66.63;39.97;;;11.40;92.00;;;;;;4940250;28;20048;-68
2022/03/26 09:57:47;;;;;;;57.57;37.70;;;11.60;91.30;;;;;;4935087;29;20052;-64
2022/03/26 10:00:14;;;;;;;58.97;37.72;;;11.60;92.10;;;;;;4938857;29;20426;-65
2022/03/26 10:02:41;;;;;;;65.15;39.72;;;11.80;90.80;;;;;;4943012;29;20055;-68
2022/03/26 10:05:10;;;;;;;58.67;35.45;;;11.90;90.10;;;;;;4937496;29;20083;-66
2022/03/26 10:07:38;;;;;;;54.80;32.65;;;12.00;89.70;;;;;;4942385;29;20059;-67
2022/03/26 10:10:05;;;;;;;56.80;36.30;;;12.00;86.90;;;;;;4935743;29;20142;-68
2022/03/26 10:12:32;;;;;;;56.28;32.55;;;12.10;85.50;;;;;;4938204;29;20047;-66
2022/03/26 10:15:00;;;;;;;49.88;32.35;;;12.20;84.70;;;;;;4948572;28;20047;-68
2022/03/26 10:17:30;;;;;;;60.88;33.17;;;12.20;83.60;;;;;;4930940;29;20044;-67
2022/03/26 10:20:01;;;;;;;55.67;33.70;;;12.30;83.60;;;;;;4952918;28;20051;-66
2022/03/26 10:22:38;;;;;;;58.25;31.92;;;12.30;83.50;;;;;;4946365;29;20496;-75
2022/03/26 10:25:10;;;;;;;53.40;30.23;;;12.40;84.50;;;;;;4967450;28;20054;-68
2022/03/26 10:27:44;;;;;;;51.13;29.38;;;12.50;82.20;;;;;;4949143;29;20051;-67
2022/03/26 10:30:12;;;;;;;78.45;46.92;;;12.60;82.50;;;;;;4950580;29;20486;-65
2022/03/26 10:32:43;;;;;;;49.58;32.22;;;12.70;82.00;;;;;;4961701;28;20055;-65
2022/03/26 10:35:24;;;;;;;60.60;32.42;;;12.80;82.70;;;;;;4937584;29;20463;-67
2022/03/26 10:37:58;;;;;;;44.72;26.27;;;12.80;81.60;;;;;;4936548;29;20054;-67
2022/03/26 10:40:36;;;;;;;44.75;26.38;;;12.90;79.10;;;;;;4955321;28;20051;-67
2022/03/26 10:43:09;;;;;;;50.10;27.85;;;13.00;78.20;;;;;;4940559;28;20146;-70
2022/03/26 10:45:47;;;;;;;44.15;27.33;;;13.00;79.30;;;;;;4956422;28;20054;-68
2022/03/26 10:48:13;;;;;;;45.05;29.48;;;13.10;79.80;;;;;;4972232;28;20054;-66
2022/03/26 10:50:40;;;;;;;45.83;27.08;;;13.10;79.50;;;;;;4956274;28;20494;-67
2022/03/26 10:53:09;;;;;;;38.15;26.33;;;13.20;79.10;;;;;;4955897;28;20138;-67
2022/03/26 10:55:39;;;;;;;50.05;26.85;;;13.30;77.60;;;;;;4956451;28;20043;-67
2022/03/26 10:58:06;;;;;;;;;;;13.30;76.80;;;;;;4971909;28;20066;-68
2022/03/26 11:00:33;;;;;;;42.25;25.52;;;13.40;78.10;;;;;;4956093;28;19922;-67
2022/03/26 11:03:00;;;;;;;37.28;23.63;;;13.50;77.60;;;;;;4926974;29;20447;-67
2022/03/26 11:05:29;;;;;;;37.58;23.90;;;13.50;75.80;;;;;;4936907;29;20450;-67
2022/03/26 11:07:56;;;;;;;34.88;22.15;;;13.60;76.30;;;;;;4952912;29;20059;-67
2022/03/26 11:10:24;;;;;;;39.13;23.67;;;13.70;76.80;;;;;;4954003;28;20057;-68
2022/03/26 11:12:51;;;;;;;35.17;22.70;;;13.70;75.60;;;;;;4971256;28;20050;-65
2022/03/26 11:15:29;;;;;;;38.28;23.13;;;13.80;75.20;;;;;;4939650;28;20058;-67
2022/03/26 11:18:06;;;;;;;29.10;20.40;;;13.80;75.80;;;;;;4955691;28;20055;-67
2022/03/26 11:20:52;;;;;;;34.83;22.52;;;13.90;75.70;;;;;;4943483;29;20054;-67
2022/03/26 11:23:43;;;;;;;30.05;19.77;;;14.00;75.00;;;;;;4952296;29;20067;-65
2022/03/26 11:26:25;;;;;;;29.30;19.13;;;14.10;74.20;;;;;;4953445;28;20062;-67
2022/03/26 11:28:58;;;;;;;31.42;19.05;;;14.10;74.60;;;;;;4953576;28;20415;-67
2022/03/26 11:31:46;;;;;;;27.92;16.38;;;14.20;73.50;;;;;;4951760;29;20055;-66
2022/03/26 11:34:16;;;;;;;25.37;15.97;;;14.20;73.10;;;;;;4953299;28;20051;-66
2022/03/26 11:36:43;;;;;;;23.45;16.83;;;14.20;73.20;;;;;;4953317;28;20052;-67
2022/03/26 11:39:12;;;;;;;25.23;15.27;;;14.30;73.50;;;;;;4952166;29;20503;-67
2022/03/26 11:41:39;;;;;;;24.13;14.93;;;14.30;72.60;;;;;;4936701;29;20099;-67
2022/03/26 11:44:07;;;;;;;26.23;16.70;;;14.50;73.40;;;;;;4951564;29;20047;-68
2022/03/26 11:52:21;;;;;;;21.70;12.90;;;14.70;71.90;;;;;;4956239;29;20062;-68
2022/03/26 11:54:55;;;;;;;27.75;13.57;;;14.60;71.90;;;;;;4955231;29;20073;-68
2022/03/26 11:57:23;;;;;;;22.15;11.65;;;14.70;72.40;;;;;;4969468;28;20047;-68
2022/03/26 11:59:51;;;;;;;22.63;13.95;;;14.70;72.50;;;;;;4950388;28;20052;-65
2022/03/26 12:02:24;;;;;;;22.77;13.80;;;14.80;73.20;;;;;;4969200;28;20052;-68
2022/03/26 12:04:55;;;;;;;18.33;12.90;;;14.90;71.60;;;;;;4952027;29;20063;-69
2022/03/26 12:07:26;;;;;;;20.25;12.15;;;15.00;71.80;;;;;;4953001;29;20054;-69
2022/03/26 12:10:04;;;;;;;19.80;11.63;;;15.00;72.80;;;;;;4956561;28;20114;-74
2022/03/26 12:12:50;;;;;;;16.27;10.07;;;15.00;71.60;;;;;;4952299;29;20062;-71
2022/03/26 12:15:17;;;;;;;17.27;11.43;;;15.10;71.80;;;;;;4967156;28;20495;-71
2022/03/26 12:17:44;;;;;;;14.70;9.35;;;15.10;71.20;;;;;;4944202;29;20043;-71
2022/03/26 12:20:22;;;;;;;20.27;11.57;;;15.30;71.80;;;;;;4947937;28;20059;-71
2022/03/26 12:23:01;;;;;;;16.83;11.15;;;15.20;70.30;;;;;;4937231;29;20059;-71
2022/03/26 12:25:32;;;;;;;15.65;10.18;;;15.30;71.40;;;;;;4950182;29;20051;-70
2022/03/26 12:28:00;;;;;;;17.40;10.30;;;15.30;70.80;;;;;;4949796;29;20054;-71
2022/03/26 12:30:26;;;;;;;20.45;11.18;;;15.30;70.20;;;;;;4965005;28;20047;-70
2022/03/26 12:32:55;;;;;;;15.77;10.68;;;15.30;70.60;;;;;;4955033;29;20051;-70
2022/03/26 12:35:22;;;;;;;16.00;9.52;;;15.40;70.10;;;;;;4952253;28;20059;-70
2022/03/26 12:37:50;;;;;;;16.08;10.15;;;15.50;70.10;;;;;;4954911;29;20055;-70
2022/03/26 12:40:17;;;;;;;16.17;10.38;;;15.50;69.60;;;;;;4931834;28;20058;-70
2022/03/26 12:42:44;;;;;;;14.05;9.00;;;15.50;70.20;;;;;;4938937;29;20054;-70
2022/03/26 12:45:16;;;;;;;19.70;10.93;;;15.60;69.10;;;;;;4967878;28;20051;-70
2022/03/26 12:47:45;;;;;;;14.38;9.38;;;15.60;69.90;;;;;;4939164;29;20043;-70
2022/03/26 12:50:13;;;;;;;16.87;11.00;;;15.60;69.20;;;;;;4954255;29;20522;-70